sensor_id;sensor_type;location;lat;lon;timestamp;P1;durP1;ratioP1;P2;durP2;ratioP2
20458;SDS011;10388;52.314;7.938;2023-05-02T00:01:28;18.67;;;14.43;;
20458;SDS011;10388;52.314;7.938;2023-05-02T00:03:59;18.67;;;14.33;;
20458;SDS011;10388;52.314;7.938;2023-05-02T00:06:30;16.77;;;13.57;;
20458;SDS011;10388;52.314;7.938;2023-05-02T00:09:01;20.03;;;14.17;;
20458;SDS011;10388;52.314;7.938;2023-05-02T00:11:34;19.37;;;15.67;;
20458;SDS011;10388;52.314;7.938;2023-05-02T00:14:05;20.33;;;15.03;;
20458;SDS011;10388;52.314;7.938;2023-05-02T00:16:36;20.17;;;15.77;;
20458;SDS011;10388;52.314;7.938;2023-05-02T03:31:21;15.77;;;10.50;;
20458;SDS011;10388;52.314;7.938;2023-05-02T03:33:52;14.13;;;10.50;;
20458;SDS011;10388;52.314;7.938;2023-05-02T03:36:23;15.30;;;11.17;;
20458;SDS011;10388;52.314;7.938;2023-05-02T03:38:53;16.20;;;9.90;;
20458;SDS011;10388;52.314;7.938;2023-05-02T03:41:24;11.27;;;7.67;;
20458;SDS011;10388;52.314;7.938;2023-05-02T03:43:55;11.27;;;6.83;;
20458;SDS011;10388;52.314;7.938;2023-05-02T03:46:25;5.97;;;4.97;;
20458;SDS011;10388;52.314;7.938;2023-05-02T03:48:56;7.30;;;5.17;;
20458;SDS011;10388;52.314;7.938;2023-05-02T03:51:27;8.27;;;5.10;;
20458;SDS011;10388;52.314;7.938;2023-05-02T03:53:58;6.47;;;4.30;;
20458;SDS011;10388;52.314;7.938;2023-05-02T03:56:30;5.67;;;4.13;;
20458;SDS011;10388;52.314;7.938;2023-05-02T03:59:01;3.93;;;3.53;;
20458;SDS011;10388;52.314;7.938;2023-05-02T04:01:31;4.53;;;3.60;;
20458;SDS011;10388;52.314;7.938;2023-05-02T04:04:02;3.23;;;2.83;;
20458;SDS011;10388;52.314;7.938;2023-05-02T04:06:32;4.57;;;3.03;;
20458;SDS011;10388;52.314;7.938;2023-05-02T04:09:03;3.70;;;3.07;;
20458;SDS011;10388;52.314;7.938;2023-05-02T04:11:34;5.23;;;3.17;;
20458;SDS011;10388;52.314;7.938;2023-05-02T04:14:04;3.40;;;3.10;;
20458;SDS011;10388;52.314;7.938;2023-05-02T04:16:34;3.67;;;3.37;;
20458;SDS011;10388;52.314;7.938;2023-05-02T04:19:05;3.43;;;3.13;;
20458;SDS011;10388;52.314;7.938;2023-05-02T04:21:36;4.70;;;4.13;;
20458;SDS011;10388;52.314;7.938;2023-05-02T04:24:06;4.87;;;3.90;;
20458;SDS011;10388;52.314;7.938;2023-05-02T04:26:38;3.80;;;3.13;;
20458;SDS011;10388;52.314;7.938;2023-05-02T04:29:08;4.10;;;3.70;;
20458;SDS011;10388;52.314;7.938;2023-05-02T04:31:39;5.53;;;3.40;;
20458;SDS011;10388;52.314;7.938;2023-05-02T04:34:10;4.67;;;3.63;;
20458;SDS011;10388;52.314;7.938;2023-05-02T04:36:46;5.27;;;4.07;;
20458;SDS011;10388;52.314;7.938;2023-05-02T04:39:17;4.40;;;3.73;;
20458;SDS011;10388;52.314;7.938;2023-05-02T04:41:47;5.60;;;3.73;;
20458;SDS011;10388;52.314;7.938;2023-05-02T04:44:18;5.27;;;4.13;;
20458;SDS011;10388;52.314;7.938;2023-05-02T04:46:48;5.07;;;4.27;;
20458;SDS011;10388;52.314;7.938;2023-05-02T04:49:19;4.13;;;3.73;;
20458;SDS011;10388;52.314;7.938;2023-05-02T04:51:50;4.90;;;4.40;;
20458;SDS011;10388;52.314;7.938;2023-05-02T04:54:22;6.40;;;4.33;;
20458;SDS011;10388;52.314;7.938;2023-05-02T04:56:52;4.90;;;4.37;;
20458;SDS011;10388;52.314;7.938;2023-05-02T04:59:23;6.00;;;4.40;;
20458;SDS011;10388;52.314;7.938;2023-05-02T05:01:53;3.03;;;2.70;;
20458;SDS011;10388;52.314;7.938;2023-05-02T05:04:24;2.73;;;2.27;;
20458;SDS011;10388;52.314;7.938;2023-05-02T05:06:54;4.47;;;2.10;;
20458;SDS011;10388;52.314;7.938;2023-05-02T05:09:25;4.87;;;2.00;;
20458;SDS011;10388;52.314;7.938;2023-05-02T05:11:56;3.00;;;1.80;;
20458;SDS011;10388;52.314;7.938;2023-05-02T05:14:26;1.93;;;1.53;;
20458;SDS011;10388;52.314;7.938;2023-05-02T05:16:57;2.67;;;1.67;;
20458;SDS011;10388;52.314;7.938;2023-05-02T05:19:28;2.83;;;1.80;;
20458;SDS011;10388;52.314;7.938;2023-05-02T05:21:58;2.70;;;1.60;;
20458;SDS011;10388;52.314;7.938;2023-05-02T05:24:29;2.70;;;1.83;;
20458;SDS011;10388;52.314;7.938;2023-05-02T05:27:00;3.83;;;2.83;;
20458;SDS011;10388;52.314;7.938;2023-05-02T05:29:31;3.50;;;2.20;;
20458;SDS011;10388;52.314;7.938;2023-05-02T05:32:02;3.07;;;2.10;;
20458;SDS011;10388;52.314;7.938;2023-05-02T05:34:32;2.73;;;2.23;;
20458;SDS011;10388;52.314;7.938;2023-05-02T05:37:03;4.43;;;3.00;;
20458;SDS011;10388;52.314;7.938;2023-05-02T05:39:33;4.30;;;2.13;;
20458;SDS011;10388;52.314;7.938;2023-05-02T05:42:04;5.73;;;5.10;;
20458;SDS011;10388;52.314;7.938;2023-05-02T05:44:35;3.03;;;2.13;;
20458;SDS011;10388;52.314;7.938;2023-05-02T05:47:06;3.30;;;2.50;;
20458;SDS011;10388;52.314;7.938;2023-05-02T05:49:36;3.83;;;2.17;;
20458;SDS011;10388;52.314;7.938;2023-05-02T05:52:07;7.67;;;2.73;;
20458;SDS011;10388;52.314;7.938;2023-05-02T05:54:37;10.20;;;3.30;;
20458;SDS011;10388;52.314;7.938;2023-05-02T05:57:08;8.20;;;3.50;;
20458;SDS011;10388;52.314;7.938;2023-05-02T05:59:38;4.60;;;2.80;;
20458;SDS011;10388;52.314;7.938;2023-05-02T06:02:09;8.33;;;3.70;;
20458;SDS011;10388;52.314;7.938;2023-05-02T06:04:39;4.93;;;3.10;;
20458;SDS011;10388;52.314;7.938;2023-05-02T06:07:10;13.77;;;4.00;;
20458;SDS011;10388;52.314;7.938;2023-05-02T06:09:41;9.40;;;3.03;;
20458;SDS011;10388;52.314;7.938;2023-05-02T06:12:11;9.03;;;4.20;;
20458;SDS011;10388;52.314;7.938;2023-05-02T06:14:42;8.13;;;3.57;;
20458;SDS011;10388;52.314;7.938;2023-05-02T06:17:12;14.97;;;4.60;;
20458;SDS011;10388;52.314;7.938;2023-05-02T06:19:43;8.07;;;3.87;;
20458;SDS011;10388;52.314;7.938;2023-05-02T06:22:13;9.50;;;4.20;;
20458;SDS011;10388;52.314;7.938;2023-05-02T06:24:44;10.50;;;4.47;;
20458;SDS011;10388;52.314;7.938;2023-05-02T06:27:14;9.80;;;4.57;;
20458;SDS011;10388;52.314;7.938;2023-05-02T06:29:45;13.20;;;4.20;;
20458;SDS011;10388;52.314;7.938;2023-05-02T06:32:16;13.37;;;4.67;;
20458;SDS011;10388;52.314;7.938;2023-05-02T06:34:47;8.90;;;4.17;;
20458;SDS011;10388;52.314;7.938;2023-05-02T06:37:18;10.37;;;3.83;;
20458;SDS011;10388;52.314;7.938;2023-05-02T06:39:48;10.60;;;3.90;;
20458;SDS011;10388;52.314;7.938;2023-05-02T06:42:19;12.40;;;4.00;;
20458;SDS011;10388;52.314;7.938;2023-05-02T06:44:50;16.30;;;3.97;;
20458;SDS011;10388;52.314;7.938;2023-05-02T06:47:20;11.50;;;3.93;;
20458;SDS011;10388;52.314;7.938;2023-05-02T06:49:54;9.53;;;4.10;;
20458;SDS011;10388;52.314;7.938;2023-05-02T06:52:25;9.97;;;4.07;;
20458;SDS011;10388;52.314;7.938;2023-05-02T06:54:55;11.43;;;3.97;;
20458;SDS011;10388;52.314;7.938;2023-05-02T06:57:26;10.23;;;4.13;;
20458;SDS011;10388;52.314;7.938;2023-05-02T06:59:57;11.93;;;4.20;;
20458;SDS011;10388;52.314;7.938;2023-05-02T07:02:28;13.70;;;4.33;;
20458;SDS011;10388;52.314;7.938;2023-05-02T07:04:58;10.97;;;3.53;;
20458;SDS011;10388;52.314;7.938;2023-05-02T07:07:29;10.40;;;4.03;;
20458;SDS011;10388;52.314;7.938;2023-05-02T07:09:59;9.63;;;3.87;;
20458;SDS011;10388;52.314;7.938;2023-05-02T07:12:30;8.90;;;4.70;;
20458;SDS011;10388;52.314;7.938;2023-05-02T07:15:00;12.57;;;6.80;;
20458;SDS011;10388;52.314;7.938;2023-05-02T07:17:31;10.63;;;3.33;;
20458;SDS011;10388;52.314;7.938;2023-05-02T07:20:01;7.83;;;3.20;;
20458;SDS011;10388;52.314;7.938;2023-05-02T07:22:32;11.23;;;2.93;;
20458;SDS011;10388;52.314;7.938;2023-05-02T07:25:03;8.63;;;2.93;;
20458;SDS011;10388;52.314;7.938;2023-05-02T07:27:33;9.57;;;3.00;;
20458;SDS011;10388;52.314;7.938;2023-05-02T07:30:04;11.00;;;3.27;;
20458;SDS011;10388;52.314;7.938;2023-05-02T07:32:35;9.63;;;2.40;;
20458;SDS011;10388;52.314;7.938;2023-05-02T07:35:07;8.53;;;2.50;;
20458;SDS011;10388;52.314;7.938;2023-05-02T07:37:38;9.30;;;2.50;;
20458;SDS011;10388;52.314;7.938;2023-05-02T07:40:08;11.63;;;3.13;;
20458;SDS011;10388;52.314;7.938;2023-05-02T07:42:39;4.83;;;2.20;;
20458;SDS011;10388;52.314;7.938;2023-05-02T07:45:10;6.87;;;2.60;;
20458;SDS011;10388;52.314;7.938;2023-05-02T07:47:41;5.50;;;2.20;;
20458;SDS011;10388;52.314;7.938;2023-05-02T07:50:11;5.03;;;2.37;;
20458;SDS011;10388;52.314;7.938;2023-05-02T07:52:42;7.10;;;2.73;;
20458;SDS011;10388;52.314;7.938;2023-05-02T07:55:13;8.77;;;2.40;;
20458;SDS011;10388;52.314;7.938;2023-05-02T07:57:44;5.83;;;2.40;;
20458;SDS011;10388;52.314;7.938;2023-05-02T08:00:14;7.33;;;3.37;;
20458;SDS011;10388;52.314;7.938;2023-05-02T08:02:45;5.17;;;2.10;;
20458;SDS011;10388;52.314;7.938;2023-05-02T08:05:16;6.83;;;2.50;;
20458;SDS011;10388;52.314;7.938;2023-05-02T08:07:47;6.50;;;2.07;;
20458;SDS011;10388;52.314;7.938;2023-05-02T08:10:17;7.03;;;2.20;;
20458;SDS011;10388;52.314;7.938;2023-05-02T08:12:48;7.07;;;2.20;;
20458;SDS011;10388;52.314;7.938;2023-05-02T08:15:19;8.30;;;2.57;;
20458;SDS011;10388;52.314;7.938;2023-05-02T08:17:50;5.37;;;2.60;;
20458;SDS011;10388;52.314;7.938;2023-05-02T08:20:20;5.03;;;2.10;;
20458;SDS011;10388;52.314;7.938;2023-05-02T08:22:51;3.50;;;2.00;;
20458;SDS011;10388;52.314;7.938;2023-05-02T08:25:22;6.17;;;1.83;;
20458;SDS011;10388;52.314;7.938;2023-05-02T08:27:52;5.07;;;2.30;;
20458;SDS011;10388;52.314;7.938;2023-05-02T08:30:23;7.67;;;2.40;;
20458;SDS011;10388;52.314;7.938;2023-05-02T08:32:53;5.23;;;2.10;;
20458;SDS011;10388;52.314;7.938;2023-05-02T08:35:24;6.30;;;2.30;;
20458;SDS011;10388;52.314;7.938;2023-05-02T08:37:55;7.77;;;2.23;;
20458;SDS011;10388;52.314;7.938;2023-05-02T08:40:25;6.33;;;2.53;;
20458;SDS011;10388;52.314;7.938;2023-05-02T08:42:56;5.07;;;1.97;;
20458;SDS011;10388;52.314;7.938;2023-05-02T08:45:27;4.53;;;2.10;;
20458;SDS011;10388;52.314;7.938;2023-05-02T08:48:11;3.90;;;2.07;;
20458;SDS011;10388;52.314;7.938;2023-05-02T08:50:44;5.50;;;2.07;;
20458;SDS011;10388;52.314;7.938;2023-05-02T08:53:17;5.47;;;2.00;;
20458;SDS011;10388;52.314;7.938;2023-05-02T08:55:48;6.93;;;1.90;;
20458;SDS011;10388;52.314;7.938;2023-05-02T08:58:18;4.27;;;1.80;;
20458;SDS011;10388;52.314;7.938;2023-05-02T09:00:49;5.97;;;1.83;;
20458;SDS011;10388;52.314;7.938;2023-05-02T09:03:34;4.87;;;2.27;;
20458;SDS011;10388;52.314;7.938;2023-05-02T09:08:40;5.07;;;2.17;;
20458;SDS011;10388;52.314;7.938;2023-05-02T09:11:11;5.17;;;1.70;;
20458;SDS011;10388;52.314;7.938;2023-05-02T09:13:45;4.70;;;1.70;;
20458;SDS011;10388;52.314;7.938;2023-05-02T09:16:21;5.43;;;2.20;;
20458;SDS011;10388;52.314;7.938;2023-05-02T09:18:55;10.07;;;2.27;;
20458;SDS011;10388;52.314;7.938;2023-05-02T09:21:38;6.47;;;2.13;;
20458;SDS011;10388;52.314;7.938;2023-05-02T09:24:16;4.17;;;1.63;;
20458;SDS011;10388;52.314;7.938;2023-05-02T09:26:55;4.77;;;1.67;;
20458;SDS011;10388;52.314;7.938;2023-05-02T09:29:31;4.97;;;1.90;;
20458;SDS011;10388;52.314;7.938;2023-05-02T09:32:06;2.40;;;1.80;;
20458;SDS011;10388;52.314;7.938;2023-05-02T09:34:37;11.30;;;2.10;;
20458;SDS011;10388;52.314;7.938;2023-05-02T09:37:08;8.07;;;2.30;;
20458;SDS011;10388;52.314;7.938;2023-05-02T09:39:41;3.43;;;1.57;;
20458;SDS011;10388;52.314;7.938;2023-05-02T09:42:36;5.10;;;1.77;;
20458;SDS011;10388;52.314;7.938;2023-05-02T09:45:06;6.27;;;2.10;;
20458;SDS011;10388;52.314;7.938;2023-05-02T09:47:37;4.00;;;1.93;;
20458;SDS011;10388;52.314;7.938;2023-05-02T09:50:10;4.40;;;1.70;;
20458;SDS011;10388;52.314;7.938;2023-05-02T09:52:40;4.57;;;1.87;;
20458;SDS011;10388;52.314;7.938;2023-05-02T09:55:31;4.23;;;1.57;;
20458;SDS011;10388;52.314;7.938;2023-05-02T09:58:02;5.53;;;1.57;;
20458;SDS011;10388;52.314;7.938;2023-05-02T10:00:42;3.00;;;1.27;;
20458;SDS011;10388;52.314;7.938;2023-05-02T10:03:17;5.33;;;1.70;;
20458;SDS011;10388;52.314;7.938;2023-05-02T10:05:48;3.83;;;1.93;;
20458;SDS011;10388;52.314;7.938;2023-05-02T10:08:19;2.80;;;1.30;;
20458;SDS011;10388;52.314;7.938;2023-05-02T10:10:52;2.53;;;1.47;;
20458;SDS011;10388;52.314;7.938;2023-05-02T10:13:26;4.93;;;1.70;;
20458;SDS011;10388;52.314;7.938;2023-05-02T10:16:01;5.27;;;2.13;;
20458;SDS011;10388;52.314;7.938;2023-05-02T10:18:46;4.30;;;1.73;;
20458;SDS011;10388;52.314;7.938;2023-05-02T10:21:24;2.57;;;1.90;;
20458;SDS011;10388;52.314;7.938;2023-05-02T10:23:59;2.73;;;1.93;;
20458;SDS011;10388;52.314;7.938;2023-05-02T10:26:31;4.63;;;1.83;;
20458;SDS011;10388;52.314;7.938;2023-05-02T10:29:03;5.37;;;2.40;;
20458;SDS011;10388;52.314;7.938;2023-05-02T10:31:34;5.93;;;1.90;;
20458;SDS011;10388;52.314;7.938;2023-05-02T10:34:09;5.63;;;2.30;;
20458;SDS011;10388;52.314;7.938;2023-05-02T10:36:40;6.17;;;2.20;;
20458;SDS011;10388;52.314;7.938;2023-05-02T10:39:11;4.83;;;2.30;;
20458;SDS011;10388;52.314;7.938;2023-05-02T10:41:41;4.20;;;2.30;;
20458;SDS011;10388;52.314;7.938;2023-05-02T10:44:13;6.07;;;2.00;;
20458;SDS011;10388;52.314;7.938;2023-05-02T10:46:44;4.30;;;2.00;;
20458;SDS011;10388;52.314;7.938;2023-05-02T10:49:15;3.60;;;1.80;;
20458;SDS011;10388;52.314;7.938;2023-05-02T10:51:46;4.57;;;1.97;;
20458;SDS011;10388;52.314;7.938;2023-05-02T10:59:36;7.57;;;2.03;;
20458;SDS011;10388;52.314;7.938;2023-05-02T11:05:05;3.97;;;2.10;;
20458;SDS011;10388;52.314;7.938;2023-05-02T11:07:37;4.77;;;2.10;;
20458;SDS011;10388;52.314;7.938;2023-05-02T11:12:48;3.57;;;1.93;;
20458;SDS011;10388;52.314;7.938;2023-05-02T11:20:30;7.17;;;2.33;;
20458;SDS011;10388;52.314;7.938;2023-05-02T11:25:51;8.67;;;2.23;;
20458;SDS011;10388;52.314;7.938;2023-05-02T11:31:07;7.27;;;2.60;;
20458;SDS011;10388;52.314;7.938;2023-05-02T11:34:00;9.60;;;3.13;;
20458;SDS011;10388;52.314;7.938;2023-05-02T11:36:32;4.20;;;2.60;;
20458;SDS011;10388;52.314;7.938;2023-05-02T11:39:16;6.80;;;2.77;;
20458;SDS011;10388;52.314;7.938;2023-05-02T11:41:49;6.77;;;2.80;;
20458;SDS011;10388;52.314;7.938;2023-05-02T11:44:20;6.60;;;2.80;;
20458;SDS011;10388;52.314;7.938;2023-05-02T11:46:50;6.87;;;2.80;;
20458;SDS011;10388;52.314;7.938;2023-05-02T11:49:22;3.90;;;2.20;;
20458;SDS011;10388;52.314;7.938;2023-05-02T11:51:52;11.10;;;2.33;;
20458;SDS011;10388;52.314;7.938;2023-05-02T11:54:23;8.47;;;2.87;;
20458;SDS011;10388;52.314;7.938;2023-05-02T11:56:53;8.40;;;2.83;;
20458;SDS011;10388;52.314;7.938;2023-05-02T11:59:24;5.97;;;2.27;;
20458;SDS011;10388;52.314;7.938;2023-05-02T12:01:55;6.83;;;2.47;;
20458;SDS011;10388;52.314;7.938;2023-05-02T12:04:27;6.77;;;2.83;;
20458;SDS011;10388;52.314;7.938;2023-05-02T12:06:57;7.57;;;2.70;;
20458;SDS011;10388;52.314;7.938;2023-05-02T12:09:28;5.67;;;2.40;;
20458;SDS011;10388;52.314;7.938;2023-05-02T12:11:58;5.03;;;2.33;;
20458;SDS011;10388;52.314;7.938;2023-05-02T12:14:29;10.40;;;2.40;;
20458;SDS011;10388;52.314;7.938;2023-05-02T12:17:02;3.67;;;2.17;;
20458;SDS011;10388;52.314;7.938;2023-05-02T12:19:33;2.93;;;2.17;;
20458;SDS011;10388;52.314;7.938;2023-05-02T12:22:06;6.77;;;2.57;;
20458;SDS011;10388;52.314;7.938;2023-05-02T12:24:36;6.23;;;2.30;;
20458;SDS011;10388;52.314;7.938;2023-05-02T12:27:14;8.20;;;2.87;;
20458;SDS011;10388;52.314;7.938;2023-05-02T12:29:46;7.93;;;2.70;;
20458;SDS011;10388;52.314;7.938;2023-05-02T12:32:27;5.47;;;2.57;;
20458;SDS011;10388;52.314;7.938;2023-05-02T12:34:59;7.47;;;2.63;;
20458;SDS011;10388;52.314;7.938;2023-05-02T12:37:32;3.77;;;2.40;;
20458;SDS011;10388;52.314;7.938;2023-05-02T12:40:13;5.67;;;2.60;;
20458;SDS011;10388;52.314;7.938;2023-05-02T12:43:01;4.50;;;2.37;;
20458;SDS011;10388;52.314;7.938;2023-05-02T12:45:39;10.03;;;2.90;;
20458;SDS011;10388;52.314;7.938;2023-05-02T12:48:16;7.57;;;2.53;;
20458;SDS011;10388;52.314;7.938;2023-05-02T12:50:49;4.83;;;2.80;;
20458;SDS011;10388;52.314;7.938;2023-05-02T12:56:23;6.13;;;2.60;;
20458;SDS011;10388;52.314;7.938;2023-05-02T12:58:56;5.07;;;2.70;;
20458;SDS011;10388;52.314;7.938;2023-05-02T13:01:33;6.97;;;3.00;;
20458;SDS011;10388;52.314;7.938;2023-05-02T13:04:03;5.67;;;2.80;;
20458;SDS011;10388;52.314;7.938;2023-05-02T13:06:34;7.80;;;2.87;;
20458;SDS011;10388;52.314;7.938;2023-05-02T13:09:06;5.83;;;2.80;;
20458;SDS011;10388;52.314;7.938;2023-05-02T13:11:37;5.37;;;2.40;;
20458;SDS011;10388;52.314;7.938;2023-05-02T13:14:08;7.63;;;2.90;;
20458;SDS011;10388;52.314;7.938;2023-05-02T13:16:40;5.70;;;3.00;;
20458;SDS011;10388;52.314;7.938;2023-05-02T13:19:10;3.80;;;2.30;;
20458;SDS011;10388;52.314;7.938;2023-05-02T13:21:41;3.47;;;2.00;;
20458;SDS011;10388;52.314;7.938;2023-05-02T13:24:12;3.77;;;2.10;;
20458;SDS011;10388;52.314;7.938;2023-05-02T13:26:43;4.20;;;1.70;;
20458;SDS011;10388;52.314;7.938;2023-05-02T13:29:15;2.67;;;1.87;;
20458;SDS011;10388;52.314;7.938;2023-05-02T13:31:45;5.20;;;2.33;;
20458;SDS011;10388;52.314;7.938;2023-05-02T13:34:16;3.37;;;1.90;;
20458;SDS011;10388;52.314;7.938;2023-05-02T13:36:46;4.43;;;2.30;;
20458;SDS011;10388;52.314;7.938;2023-05-02T13:39:17;3.80;;;2.10;;
20458;SDS011;10388;52.314;7.938;2023-05-02T13:41:47;4.70;;;2.10;;
20458;SDS011;10388;52.314;7.938;2023-05-02T13:44:18;4.63;;;2.43;;
20458;SDS011;10388;52.314;7.938;2023-05-02T13:46:49;3.70;;;2.20;;
20458;SDS011;10388;52.314;7.938;2023-05-02T13:49:19;5.23;;;2.43;;
20458;SDS011;10388;52.314;7.938;2023-05-02T13:51:50;4.17;;;1.93;;
20458;SDS011;10388;52.314;7.938;2023-05-02T13:54:20;6.73;;;2.40;;
20458;SDS011;10388;52.314;7.938;2023-05-02T13:56:51;2.83;;;1.80;;
20458;SDS011;10388;52.314;7.938;2023-05-02T13:59:22;3.63;;;1.83;;
20458;SDS011;10388;52.314;7.938;2023-05-02T14:01:52;3.43;;;1.70;;
20458;SDS011;10388;52.314;7.938;2023-05-02T14:04:23;2.53;;;1.40;;
20458;SDS011;10388;52.314;7.938;2023-05-02T14:06:53;3.93;;;1.83;;
20458;SDS011;10388;52.314;7.938;2023-05-02T14:09:24;5.80;;;1.90;;
20458;SDS011;10388;52.314;7.938;2023-05-02T14:11:55;4.80;;;2.20;;
20458;SDS011;10388;52.314;7.938;2023-05-02T14:14:27;5.03;;;1.67;;
20458;SDS011;10388;52.314;7.938;2023-05-02T14:16:58;1.90;;;1.43;;
20458;SDS011;10388;52.314;7.938;2023-05-02T14:19:30;3.50;;;1.90;;
20458;SDS011;10388;52.314;7.938;2023-05-02T14:22:01;2.03;;;1.50;;
20458;SDS011;10388;52.314;7.938;2023-05-02T14:24:32;2.80;;;1.73;;
20458;SDS011;10388;52.314;7.938;2023-05-02T14:27:02;3.63;;;1.60;;
20458;SDS011;10388;52.314;7.938;2023-05-02T14:29:33;4.07;;;1.60;;
20458;SDS011;10388;52.314;7.938;2023-05-02T14:32:04;4.03;;;1.50;;
20458;SDS011;10388;52.314;7.938;2023-05-02T14:34:34;4.07;;;1.80;;
20458;SDS011;10388;52.314;7.938;2023-05-02T14:37:05;7.50;;;1.50;;
20458;SDS011;10388;52.314;7.938;2023-05-02T14:39:37;5.27;;;1.57;;
20458;SDS011;10388;52.314;7.938;2023-05-02T14:42:09;2.73;;;1.50;;
20458;SDS011;10388;52.314;7.938;2023-05-02T14:44:39;2.00;;;1.40;;
20458;SDS011;10388;52.314;7.938;2023-05-02T14:47:11;4.10;;;1.63;;
20458;SDS011;10388;52.314;7.938;2023-05-02T14:49:41;2.50;;;1.57;;
20458;SDS011;10388;52.314;7.938;2023-05-02T14:52:12;1.77;;;1.53;;
20458;SDS011;10388;52.314;7.938;2023-05-02T14:54:42;4.47;;;1.60;;
20458;SDS011;10388;52.314;7.938;2023-05-02T14:57:13;3.50;;;1.77;;
20458;SDS011;10388;52.314;7.938;2023-05-02T14:59:44;5.33;;;1.87;;
20458;SDS011;10388;52.314;7.938;2023-05-02T15:02:15;3.00;;;1.50;;
20458;SDS011;10388;52.314;7.938;2023-05-02T15:04:45;1.63;;;1.40;;
20458;SDS011;10388;52.314;7.938;2023-05-02T15:07:16;2.10;;;1.23;;
20458;SDS011;10388;52.314;7.938;2023-05-02T15:09:46;5.37;;;2.10;;
20458;SDS011;10388;52.314;7.938;2023-05-02T15:12:17;3.27;;;1.70;;
20458;SDS011;10388;52.314;7.938;2023-05-02T15:14:47;3.43;;;1.50;;
20458;SDS011;10388;52.314;7.938;2023-05-02T15:17:18;4.77;;;2.07;;
20458;SDS011;10388;52.314;7.938;2023-05-02T15:19:48;4.17;;;1.43;;
20458;SDS011;10388;52.314;7.938;2023-05-02T15:22:19;2.97;;;1.47;;
20458;SDS011;10388;52.314;7.938;2023-05-02T15:24:52;2.00;;;1.40;;
20458;SDS011;10388;52.314;7.938;2023-05-02T15:27:22;2.50;;;1.40;;
20458;SDS011;10388;52.314;7.938;2023-05-02T15:29:53;3.13;;;1.27;;
20458;SDS011;10388;52.314;7.938;2023-05-02T15:32:24;2.10;;;1.30;;
20458;SDS011;10388;52.314;7.938;2023-05-02T15:34:54;3.20;;;1.40;;
20458;SDS011;10388;52.314;7.938;2023-05-02T15:37:25;4.20;;;1.60;;
20458;SDS011;10388;52.314;7.938;2023-05-02T15:39:55;3.73;;;1.40;;
20458;SDS011;10388;52.314;7.938;2023-05-02T15:42:26;2.77;;;1.53;;
20458;SDS011;10388;52.314;7.938;2023-05-02T15:44:56;4.97;;;1.40;;
20458;SDS011;10388;52.314;7.938;2023-05-02T15:47:27;2.77;;;1.33;;
20458;SDS011;10388;52.314;7.938;2023-05-02T15:49:58;2.23;;;1.40;;
20458;SDS011;10388;52.314;7.938;2023-05-02T15:52:28;3.13;;;1.40;;
20458;SDS011;10388;52.314;7.938;2023-05-02T15:54:59;3.50;;;1.37;;
20458;SDS011;10388;52.314;7.938;2023-05-02T15:57:30;3.83;;;1.30;;
20458;SDS011;10388;52.314;7.938;2023-05-02T16:02:39;1.93;;;1.40;;
20458;SDS011;10388;52.314;7.938;2023-05-02T16:05:09;2.80;;;1.10;;
20458;SDS011;10388;52.314;7.938;2023-05-02T16:07:40;1.57;;;1.00;;
20458;SDS011;10388;52.314;7.938;2023-05-02T16:10:11;3.07;;;1.20;;
20458;SDS011;10388;52.314;7.938;2023-05-02T16:12:41;2.80;;;1.20;;
20458;SDS011;10388;52.314;7.938;2023-05-02T16:15:12;2.63;;;0.90;;
20458;SDS011;10388;52.314;7.938;2023-05-02T16:17:42;1.40;;;0.90;;
20458;SDS011;10388;52.314;7.938;2023-05-02T16:20:13;2.07;;;1.47;;
20458;SDS011;10388;52.314;7.938;2023-05-02T16:22:47;2.13;;;1.30;;
20458;SDS011;10388;52.314;7.938;2023-05-02T16:25:18;1.40;;;1.10;;
20458;SDS011;10388;52.314;7.938;2023-05-02T16:27:48;1.97;;;1.10;;
20458;SDS011;10388;52.314;7.938;2023-05-02T16:30:19;1.47;;;1.20;;
20458;SDS011;10388;52.314;7.938;2023-05-02T16:32:50;2.30;;;1.20;;
20458;SDS011;10388;52.314;7.938;2023-05-02T16:35:21;4.40;;;1.20;;
20458;SDS011;10388;52.314;7.938;2023-05-02T16:37:51;4.20;;;1.10;;
20458;SDS011;10388;52.314;7.938;2023-05-02T16:40:22;2.00;;;1.47;;
20458;SDS011;10388;52.314;7.938;2023-05-02T16:42:52;2.47;;;1.60;;
20458;SDS011;10388;52.314;7.938;2023-05-02T16:45:23;4.47;;;1.23;;
20458;SDS011;10388;52.314;7.938;2023-05-02T16:47:54;1.33;;;0.90;;
20458;SDS011;10388;52.314;7.938;2023-05-02T16:50:24;0.97;;;0.93;;
20458;SDS011;10388;52.314;7.938;2023-05-02T16:52:55;3.17;;;1.30;;
20458;SDS011;10388;52.314;7.938;2023-05-02T16:55:26;3.57;;;1.60;;
20458;SDS011;10388;52.314;7.938;2023-05-02T16:57:56;1.73;;;1.37;;
20458;SDS011;10388;52.314;7.938;2023-05-02T17:00:26;2.87;;;1.20;;
20458;SDS011;10388;52.314;7.938;2023-05-02T17:02:57;1.37;;;1.17;;
20458;SDS011;10388;52.314;7.938;2023-05-02T17:05:27;4.47;;;1.17;;
20458;SDS011;10388;52.314;7.938;2023-05-02T17:08:00;2.30;;;1.23;;
20458;SDS011;10388;52.314;7.938;2023-05-02T17:10:31;2.10;;;1.23;;
20458;SDS011;10388;52.314;7.938;2023-05-02T17:13:01;1.83;;;1.40;;
20458;SDS011;10388;52.314;7.938;2023-05-02T17:15:35;7.30;;;1.63;;
20458;SDS011;10388;52.314;7.938;2023-05-02T17:18:07;2.23;;;1.70;;
20458;SDS011;10388;52.314;7.938;2023-05-02T17:20:38;6.07;;;1.60;;
20458;SDS011;10388;52.314;7.938;2023-05-02T17:23:08;4.70;;;1.30;;
20458;SDS011;10388;52.314;7.938;2023-05-02T17:25:39;3.70;;;1.40;;
20458;SDS011;10388;52.314;7.938;2023-05-02T17:28:10;2.63;;;1.30;;
20458;SDS011;10388;52.314;7.938;2023-05-02T17:30:41;2.87;;;1.10;;
20458;SDS011;10388;52.314;7.938;2023-05-02T17:33:12;3.60;;;1.33;;
20458;SDS011;10388;52.314;7.938;2023-05-02T17:35:42;1.90;;;1.20;;
20458;SDS011;10388;52.314;7.938;2023-05-02T17:38:13;3.23;;;1.27;;
20458;SDS011;10388;52.314;7.938;2023-05-02T17:40:43;1.60;;;1.13;;
20458;SDS011;10388;52.314;7.938;2023-05-02T17:43:14;2.70;;;1.10;;
20458;SDS011;10388;52.314;7.938;2023-05-02T17:45:45;2.70;;;1.10;;
20458;SDS011;10388;52.314;7.938;2023-05-02T17:48:16;1.97;;;1.30;;
20458;SDS011;10388;52.314;7.938;2023-05-02T17:50:47;2.17;;;0.97;;
20458;SDS011;10388;52.314;7.938;2023-05-02T17:53:19;3.07;;;1.20;;
20458;SDS011;10388;52.314;7.938;2023-05-02T17:55:51;2.87;;;1.20;;
20458;SDS011;10388;52.314;7.938;2023-05-02T17:58:21;4.97;;;1.10;;
20458;SDS011;10388;52.314;7.938;2023-05-02T18:00:52;2.83;;;1.10;;
20458;SDS011;10388;52.314;7.938;2023-05-02T18:03:23;4.13;;;1.23;;
20458;SDS011;10388;52.314;7.938;2023-05-02T18:05:54;2.07;;;1.47;;
20458;SDS011;10388;52.314;7.938;2023-05-02T18:08:24;1.97;;;1.13;;
20458;SDS011;10388;52.314;7.938;2023-05-02T18:10:55;1.33;;;0.90;;
20458;SDS011;10388;52.314;7.938;2023-05-02T18:13:27;17.30;;;2.80;;
20458;SDS011;10388;52.314;7.938;2023-05-02T18:15:57;2.60;;;1.40;;
20458;SDS011;10388;52.314;7.938;2023-05-02T18:18:30;1.93;;;1.20;;
20458;SDS011;10388;52.314;7.938;2023-05-02T18:21:02;2.53;;;1.23;;
20458;SDS011;10388;52.314;7.938;2023-05-02T18:23:32;2.20;;;1.00;;
20458;SDS011;10388;52.314;7.938;2023-05-02T18:26:03;3.90;;;1.50;;
20458;SDS011;10388;52.314;7.938;2023-05-02T18:28:40;2.63;;;1.10;;
20458;SDS011;10388;52.314;7.938;2023-05-02T18:31:18;1.90;;;0.90;;
20458;SDS011;10388;52.314;7.938;2023-05-02T18:33:51;2.80;;;1.00;;
20458;SDS011;10388;52.314;7.938;2023-05-02T18:36:23;1.53;;;1.20;;
20458;SDS011;10388;52.314;7.938;2023-05-02T18:38:55;3.93;;;1.40;;
20458;SDS011;10388;52.314;7.938;2023-05-02T18:41:25;4.77;;;1.07;;
20458;SDS011;10388;52.314;7.938;2023-05-02T18:43:56;5.57;;;1.17;;
20458;SDS011;10388;52.314;7.938;2023-05-02T18:46:26;3.30;;;1.10;;
20458;SDS011;10388;52.314;7.938;2023-05-02T18:48:57;4.07;;;1.20;;
20458;SDS011;10388;52.314;7.938;2023-05-02T18:51:27;2.70;;;1.10;;
20458;SDS011;10388;52.314;7.938;2023-05-02T18:53:58;2.23;;;0.93;;